Varna, Bulgaria
Current Conditions -  °F | °C
As of 2:00 PM on Friday 24 Oct 2014 (Local Time) from LBWN Reporting Station
Few Clouds Few Clouds  
Wind Chill: 10°   Ceiling: Unl
Heat Index: 10°   Visibility: 6mi
Dew Point:   Wind: 13mph
Humidity: 87%   Direction: 350°N
Pressure: 29.97"   Gusts: NA
Location:  43.21°N, 27.9°E
Report Text: LBWN 241100Z 35006MPS 310V020 9999 FEW012 10/08 Q1015 NOSIG
Loading
Personal Weather Stations






























Interactive Weather Map New forecast layout! Learn more

10-Day Weather Forecast

Advertisements
Track Severe Weather on mobile